หน้าหลัก
METAR-TAF:

METAR-TAF

ท่าอากาศยาน :

ท่าอากาศยานนานาชาติเคปทาวน์

เคปทาวน์, แอฟริกาใต้

ละติจูด: 33-59S, ลองจิจูด: 018-36E, ความสูง: 42 ม.

การสังเกตสภาพอากาศปัจจุบัน

รายงานได้ทำขึ้นเมื่อ 19 นาทีที่แล้ว ณ เวลา 08:37 UTC
ลม 14 นอตจากใต้โดยมีลมกระโชกได้ถึง24 นอต, แปรผันระหว่างใต้/ตะวันออกเฉียงใต้ และใต้/ตะวันตกเฉียงใต้
อุณหภูมิ 18°C
ความชื้น 73%
ความกดอากาศ 1022 hPa
ทัศนวิสัย 10 กม. หรือมากกว่า
มีเมฆน้อยที่ความสูง 3000 ฟุต
มีเมฆเป็นส่วนมากเว้นเป็นระยะที่ความสูง 4000 ฟุต

METAR: FACT 250837Z 18014G24KT 150V210 9999 FEW030 BKN040 18/13 Q1022

เวลา: 10:56 (08:56 UTC)

การพยากรณ์

รายงานได้ทำขึ้นเมื่อ 4 ชั่วโมงและ 56 นาทีที่แล้ว ณ เวลา 04:00 UTC
การพยากรณ์มีผลตั้งแต่วันที่ 25 ณ เวลา 06 UTC จนถึงวันที่ 26 ณ เวลา 12 UTC
ลม 3 นอตจากทิศทางซึ่งแปรผันได้
ทัศนวิสัย 10 กม. หรือมากกว่า
มีเมฆกระจายเป็นบางส่วนที่ความสูง 4000 ฟุต
จาก 25 ณ เวลา 0900 UTC
ลม 15 นอตจากใต้
ทัศนวิสัย 10 กม. หรือมากกว่า
มีเมฆน้อยที่ความสูง 4000 ฟุต

TAF: FACT 250400Z 2506/2612 VRB03KT 9999 SCT040 TX27/2612Z TN16/2604Z FM250900 17015KT 9999 FEW040

สังเกตการณ์สภาพอากาศและพยากรณ์อากาศของสนามบินมากกว่า 4000 แห่ง (รายงาน METAR และ TAF).

สถานีที่ดูได้จะแสดงไว้ด้วยจุดสีเหลืองและสีแดงบนแผนที่.

เลื่อนเมาส์ไปเหนือจุดเพื่อดูชื่อสถานี.

แล้วคลิกเพื่อดูสังเกตการณ์และการพยากรณ์สภาพอากาศ.

ในการเปลี่ยนแผนที่: คลิกที่ปุ่มสีเขียวที่มีกากบาทสีดำเพื่อซูมเข้า; ที่ปุ่มสีเขียวที่มีขีดเพื่อซูมออก; หรือที่ลูกศรสีเขียวเพื่อไปยังแผนที่ที่อยู่ติดกัน.


METAR-TAF: